Terminal Aerodrome Forecast
Issued by NWS

Home | Current Version | Previous Version | Graphics & Text | Print | Product List | Glossary On
Versions: 1 2 3 4 5 6 7 8 9 10 11 12 13 14 15 16 17 18 19
000
FTUS43 KGRB 240242 AAA
TAFMTW
TAF AMD
KMTW 240242Z 2403/2424 15012KT P6SM OVC035 WS013/19040KT
     FM240500 19008KT P6SM OVC020 WS018/23040KT
      TEMPO 2407/2410 4SM -RA BR OVC015
     FM241000 20004KT 3SM -RA BR OVC012
     FM241400 VRB03KT 2SM -RA OVC007
     FM241700 02008KT 1 1/2SM -RA OVC003=

USA.gov is the U.S. government's official web portal to all federal, state and local government web resources and services.